createdAt,value
2023-05-11T04:15:25.979Z,13.36
2023-05-11T04:16:26.885Z,13.37
2023-05-11T04:17:25.962Z,13.41
2023-05-11T04:18:26.078Z,13.41
2023-05-11T04:19:25.939Z,13.43
2023-05-11T04:20:25.921Z,13.43
2023-05-11T04:21:25.924Z,13.46
2023-05-11T04:22:25.886Z,13.44
2023-05-11T04:23:25.878Z,13.47
2023-05-11T04:24:25.865Z,13.46
2023-05-11T04:25:25.849Z,13.44
2023-05-11T04:26:25.828Z,13.44
2023-05-11T04:27:25.832Z,13.44
2023-05-11T04:28:25.818Z,13.44
2023-05-11T04:29:25.795Z,13.44
2023-05-11T04:30:25.820Z,13.44
2023-05-11T04:31:25.829Z,13.46
2023-05-11T04:32:25.811Z,13.47
2023-05-11T04:33:25.769Z,13.49
2023-05-11T04:34:25.749Z,13.49
2023-05-11T04:35:25.722Z,13.51
2023-05-11T04:36:25.705Z,13.51
2023-05-11T04:37:25.705Z,13.49
2023-05-11T04:38:25.691Z,13.49
2023-05-11T04:39:25.665Z,13.47
2023-05-11T04:40:25.652Z,13.47
2023-05-11T04:41:25.638Z,13.49
2023-05-11T04:42:25.697Z,13.51
2023-05-11T04:43:25.605Z,13.51
2023-05-11T04:44:25.597Z,13.51
2023-05-11T04:45:25.580Z,13.51
2023-05-11T04:46:25.611Z,13.54
2023-05-11T04:47:25.631Z,13.58
2023-05-11T04:48:25.558Z,13.62
2023-05-11T04:49:25.540Z,13.70
2023-05-11T04:50:25.528Z,13.73
2023-05-11T04:51:25.517Z,13.74
2023-05-11T04:52:25.496Z,13.79
2023-05-11T04:53:25.474Z,13.81
2023-05-11T04:54:25.462Z,13.81
2023-05-11T04:55:25.484Z,13.80
2023-05-11T04:56:25.458Z,13.81
2023-05-11T04:57:25.422Z,13.83
2023-05-11T04:58:25.409Z,13.81
2023-05-11T04:59:25.445Z,13.81
2023-05-11T05:00:25.397Z,13.81
2023-05-11T05:01:25.409Z,13.83
2023-05-11T05:02:25.393Z,13.80
2023-05-11T05:03:25.411Z,13.76
2023-05-11T05:04:25.328Z,13.99
2023-05-11T05:05:25.348Z,14.27
2023-05-11T05:06:25.310Z,14.60
2023-05-11T05:07:25.287Z,14.81
2023-05-11T05:08:25.279Z,14.99
2023-05-11T05:09:25.260Z,15.13
2023-05-11T05:10:25.261Z,15.20
2023-05-11T05:11:25.246Z,15.08
2023-05-11T05:12:25.226Z,14.93
2023-05-11T05:13:25.211Z,14.80
2023-05-11T05:14:26.159Z,14.67
2023-05-11T05:15:25.195Z,14.60
2023-05-11T05:16:25.213Z,14.69
2023-05-11T05:17:25.182Z,14.68
2023-05-11T05:18:25.204Z,14.72
2023-05-11T05:19:25.149Z,14.61
2023-05-11T05:20:25.135Z,14.61
2023-05-11T05:21:25.104Z,14.78
2023-05-11T05:22:25.104Z,14.95
2023-05-11T05:23:25.081Z,15.15
2023-05-11T05:24:25.080Z,15.33
2023-05-11T05:25:25.060Z,15.39
2023-05-11T05:26:25.042Z,15.45
2023-05-11T05:27:25.022Z,15.56
2023-05-11T05:28:25.029Z,15.75
2023-05-11T05:29:25.009Z,15.82
2023-05-11T05:30:24.994Z,15.84
2023-05-11T05:31:25.079Z,15.89
2023-05-11T05:32:25.008Z,16.07
2023-05-11T05:33:24.947Z,16.16
2023-05-11T05:34:24.933Z,16.12
2023-05-11T05:35:24.925Z,16.11
2023-05-11T05:36:24.903Z,16.06
2023-05-11T05:37:24.902Z,16.06
2023-05-11T05:38:24.887Z,16.09
2023-05-11T05:39:24.867Z,16.04
2023-05-11T05:40:24.855Z,15.97
2023-05-11T05:41:24.862Z,15.85
2023-05-11T05:42:24.838Z,15.82
2023-05-11T05:43:24.834Z,15.86
2023-05-11T05:44:24.795Z,15.96
2023-05-11T05:45:24.797Z,15.94
2023-05-11T05:46:24.804Z,16.00
2023-05-11T05:47:24.820Z,15.97
2023-05-11T05:48:24.747Z,15.84
2023-05-11T05:49:24.739Z,15.67
2023-05-11T05:50:24.716Z,15.51
2023-05-11T05:51:24.714Z,15.41
2023-05-11T05:52:24.703Z,15.31
2023-05-11T05:53:24.685Z,15.23
2023-05-11T05:54:24.665Z,15.15
2023-05-11T05:55:24.656Z,15.08
2023-05-11T05:56:24.657Z,15.02
2023-05-11T05:57:24.630Z,14.98
2023-05-11T05:58:24.621Z,14.88
2023-05-11T05:59:24.612Z,14.87
2023-05-11T06:00:24.588Z,14.84
2023-05-11T06:01:24.704Z,14.80
2023-05-11T06:02:24.621Z,14.78
2023-05-11T06:03:26.447Z,14.75
2023-05-11T06:04:24.632Z,14.81
2023-05-11T06:05:24.545Z,14.88
2023-05-11T06:06:24.513Z,14.91
2023-05-11T06:07:24.502Z,14.81
2023-05-11T06:08:24.475Z,14.64
2023-05-11T06:09:24.473Z,14.50
2023-05-11T06:10:24.465Z,14.46
2023-05-11T06:11:24.461Z,14.49
2023-05-11T06:12:24.449Z,14.50
2023-05-11T06:13:24.422Z,14.54
2023-05-11T06:14:24.405Z,14.57
2023-05-11T06:15:24.398Z,14.62
2023-05-11T06:16:24.397Z,14.65
2023-05-11T06:17:24.418Z,14.64
2023-05-11T06:18:24.385Z,14.64
2023-05-11T06:19:24.338Z,14.65
2023-05-11T06:20:24.370Z,14.62
2023-05-11T06:21:24.315Z,14.65
2023-05-11T06:22:24.299Z,14.67
2023-05-11T06:23:24.290Z,14.57
2023-05-11T06:24:24.280Z,14.54
2023-05-11T06:25:24.273Z,14.60
2023-05-11T06:26:24.255Z,14.52
2023-05-11T06:27:24.240Z,14.49
2023-05-11T06:28:24.217Z,14.52
2023-05-11T06:29:24.234Z,14.54
2023-05-11T06:30:24.209Z,14.52
2023-05-11T06:31:24.242Z,14.52
2023-05-11T06:32:24.213Z,14.49
2023-05-11T06:33:24.159Z,14.53
2023-05-11T06:34:24.153Z,14.64
2023-05-11T06:35:24.143Z,14.71
2023-05-11T06:36:24.133Z,14.71
2023-05-11T06:37:24.117Z,14.71
2023-05-11T06:38:24.117Z,14.74
2023-05-11T06:39:24.102Z,14.78
2023-05-11T06:40:24.078Z,14.81
2023-05-11T06:41:24.054Z,14.75
2023-05-11T06:42:24.043Z,14.64
2023-05-11T06:43:24.053Z,14.60
2023-05-11T06:44:24.011Z,14.54
2023-05-11T06:45:24.052Z,14.60
2023-05-11T06:46:24.024Z,14.67
2023-05-11T06:47:24.017Z,14.72
2023-05-11T06:48:23.979Z,14.78
2023-05-11T06:49:23.963Z,14.78
2023-05-11T06:50:27.164Z,14.81
2023-05-11T06:51:23.945Z,14.87
2023-05-11T06:52:23.914Z,14.99
2023-05-11T06:53:23.935Z,15.12
2023-05-11T06:54:23.883Z,15.27
2023-05-11T06:55:23.875Z,15.43
2023-05-11T06:56:23.867Z,15.59
2023-05-11T06:57:23.867Z,15.59
2023-05-11T06:58:23.829Z,15.66
2023-05-11T06:59:23.843Z,15.72
2023-05-11T07:00:23.801Z,15.74
2023-05-11T07:01:30.877Z,15.75
2023-05-11T07:02:23.799Z,15.81
2023-05-11T07:03:23.773Z,15.85
2023-05-11T07:04:23.776Z,15.86
2023-05-11T07:05:23.742Z,15.86
2023-05-11T07:06:23.729Z,15.97
2023-05-11T07:07:23.736Z,15.92
2023-05-11T07:08:23.697Z,15.76
2023-05-11T07:09:23.717Z,15.76
2023-05-11T07:10:23.672Z,15.78
2023-05-11T07:11:23.678Z,16.00
2023-05-11T07:12:23.637Z,16.20
2023-05-11T07:13:23.632Z,16.14
2023-05-11T07:14:23.618Z,16.18
2023-05-11T07:15:23.614Z,16.31
2023-05-11T07:16:23.619Z,16.48
2023-05-11T07:17:23.664Z,16.60
2023-05-11T07:18:23.581Z,16.73
2023-05-11T07:19:23.558Z,16.78
2023-05-11T07:20:23.552Z,16.80
2023-05-11T07:21:23.544Z,16.83
2023-05-11T07:22:23.603Z,16.80
2023-05-11T07:23:23.491Z,16.68
2023-05-11T07:24:23.478Z,16.65
2023-05-11T07:25:23.499Z,16.63
2023-05-11T07:26:23.472Z,16.62
2023-05-11T07:27:23.445Z,16.56
2023-05-11T07:28:23.421Z,16.45
2023-05-11T07:29:23.414Z,16.53
2023-05-11T07:30:23.769Z,16.53
2023-05-11T07:31:23.432Z,16.40
2023-05-11T07:32:23.442Z,16.30
2023-05-11T07:33:23.359Z,16.06
2023-05-11T07:34:23.370Z,15.96
2023-05-11T07:35:24.136Z,15.94
2023-05-11T07:36:23.320Z,15.93
2023-05-11T07:37:23.315Z,15.92
2023-05-11T07:38:23.295Z,15.84
2023-05-11T07:39:23.324Z,15.84
2023-05-11T07:40:23.297Z,15.79
2023-05-11T07:41:23.260Z,15.76
2023-05-11T07:42:23.265Z,15.70
2023-05-11T07:43:23.242Z,15.56
2023-05-11T07:44:23.237Z,15.48
2023-05-11T07:45:23.238Z,15.45
2023-05-11T07:46:23.269Z,15.28
2023-05-11T07:47:23.208Z,15.31
2023-05-11T07:48:23.161Z,15.36
2023-05-11T07:49:31.405Z,15.35
2023-05-11T07:50:24.830Z,15.33
2023-05-11T07:51:23.124Z,15.36
2023-05-11T07:52:23.110Z,15.36
2023-05-11T07:53:23.102Z,15.46
2023-05-11T07:54:23.089Z,15.59
2023-05-11T07:55:23.093Z,15.63
2023-05-11T07:56:23.048Z,15.68
2023-05-11T07:57:23.082Z,15.70
2023-05-11T07:58:23.041Z,15.67
2023-05-11T07:59:23.010Z,15.56
2023-05-11T08:00:23.006Z,15.63
2023-05-11T08:01:22.992Z,15.63
2023-05-11T08:02:23.043Z,15.67
2023-05-11T08:03:23.096Z,15.74
2023-05-11T08:04:22.944Z,15.63
2023-05-11T08:05:23.062Z,15.54
2023-05-11T08:06:22.966Z,15.70
2023-05-11T08:07:22.924Z,15.85
2023-05-11T08:08:22.899Z,15.94
2023-05-11T08:09:22.897Z,15.99
2023-05-11T08:10:22.909Z,15.96
2023-05-11T08:11:22.859Z,15.92
2023-05-11T08:12:22.847Z,15.88
2023-05-11T08:13:23.113Z,15.81
2023-05-11T08:14:22.811Z,15.75
2023-05-11T08:15:22.802Z,15.82
2023-05-11T08:16:22.827Z,15.88
2023-05-11T08:17:22.787Z,15.88
2023-05-11T08:18:22.794Z,15.86
2023-05-11T08:19:22.748Z,15.78
2023-05-11T08:20:22.746Z,15.72
2023-05-11T08:21:22.731Z,15.67
2023-05-11T08:22:22.708Z,15.61
2023-05-11T08:23:22.700Z,15.64
2023-05-11T08:24:22.684Z,15.68
2023-05-11T08:25:22.678Z,15.70
2023-05-11T08:26:22.666Z,15.67
2023-05-11T08:27:22.645Z,15.60
2023-05-11T08:28:22.645Z,15.57
2023-05-11T08:29:22.620Z,15.59
2023-05-11T08:30:22.906Z,15.56
2023-05-11T08:31:22.674Z,15.51
2023-05-11T08:32:22.728Z,15.46
2023-05-11T08:33:36.654Z,15.48
2023-05-11T08:34:23.752Z,15.54
2023-05-11T08:35:22.976Z,15.57
2023-05-11T08:36:22.529Z,15.56
2023-05-11T08:37:22.505Z,15.56
2023-05-11T08:38:22.501Z,15.57
2023-05-11T08:39:38.873Z,15.64
2023-05-11T08:40:23.473Z,15.54
2023-05-11T08:41:22.483Z,15.56
2023-05-11T08:42:22.434Z,15.63
2023-05-11T08:43:22.475Z,15.70
2023-05-11T08:44:22.421Z,15.70
2023-05-11T08:45:22.490Z,15.63
2023-05-11T08:46:22.454Z,15.67
2023-05-11T08:47:23.788Z,15.67
2023-05-11T08:48:22.355Z,15.67
2023-05-11T08:49:22.423Z,15.67
2023-05-11T08:50:22.422Z,15.68
2023-05-11T08:51:22.314Z,15.70
2023-05-11T08:52:22.299Z,15.72
2023-05-11T08:53:22.317Z,15.67
2023-05-11T08:54:22.308Z,15.61
2023-05-11T08:55:22.274Z,15.59
2023-05-11T08:56:22.238Z,15.54
2023-05-11T08:57:22.234Z,15.56
2023-05-11T08:58:22.239Z,15.43
2023-05-11T08:59:22.219Z,15.43
2023-05-11T09:00:22.187Z,15.42
2023-05-11T09:01:22.220Z,15.36
2023-05-11T09:02:22.229Z,15.27
2023-05-11T09:03:22.164Z,15.26
2023-05-11T09:04:22.155Z,15.27
2023-05-11T09:05:22.365Z,15.17
2023-05-11T09:06:22.113Z,15.06
2023-05-11T09:07:22.106Z,14.99
2023-05-11T09:08:22.127Z,14.94
2023-05-11T09:09:22.078Z,14.88
2023-05-11T09:10:22.057Z,14.84
2023-05-11T09:11:22.058Z,14.86
2023-05-11T09:12:22.029Z,14.87
2023-05-11T09:13:22.039Z,14.84
2023-05-11T09:14:27.144Z,14.80
2023-05-11T09:15:23.009Z,14.71
2023-05-11T09:16:36.086Z,14.65
2023-05-11T09:17:23.024Z,14.62
2023-05-11T09:18:21.983Z,14.65
2023-05-11T09:19:21.996Z,14.68
2023-05-11T09:20:21.950Z,14.64
2023-05-11T09:21:21.921Z,14.62
2023-05-11T09:22:21.910Z,14.62
2023-05-11T09:23:21.904Z,14.62
2023-05-11T09:24:21.901Z,14.53
2023-05-11T09:25:21.951Z,14.46
2023-05-11T09:26:21.846Z,14.52
2023-05-11T09:27:21.852Z,14.62
2023-05-11T09:28:25.482Z,14.68
2023-05-11T09:29:21.818Z,14.67
2023-05-11T09:30:22.508Z,14.69
2023-05-11T09:31:21.840Z,14.71
2023-05-11T09:32:21.806Z,14.72
2023-05-11T09:33:21.774Z,14.74
2023-05-11T09:34:21.750Z,14.75
2023-05-11T09:35:21.979Z,14.72
2023-05-11T09:36:21.752Z,14.78
2023-05-11T09:37:21.712Z,14.87
2023-05-11T09:38:21.712Z,14.86
2023-05-11T09:39:35.019Z,14.95
2023-05-11T09:40:27.453Z,14.99
2023-05-11T09:41:22.676Z,14.95
2023-05-11T09:42:21.682Z,15.11
2023-05-11T09:43:21.632Z,15.24
2023-05-11T09:44:21.618Z,15.27
2023-05-11T09:45:21.619Z,15.28
2023-05-11T09:46:21.698Z,15.26
2023-05-11T09:47:21.584Z,15.30
2023-05-11T09:48:21.611Z,15.23
2023-05-11T09:49:21.556Z,15.20
2023-05-11T09:50:26.210Z,15.17
2023-05-11T09:51:22.522Z,15.19
2023-05-11T09:52:21.645Z,15.21
2023-05-11T09:53:21.507Z,15.26
2023-05-11T09:54:21.498Z,15.30
2023-05-11T09:55:21.499Z,15.39
2023-05-11T09:56:21.469Z,15.57
2023-05-11T09:57:21.449Z,15.64
2023-05-11T09:58:21.435Z,15.57
2023-05-11T09:59:21.430Z,15.60
2023-05-11T10:00:21.421Z,15.57
2023-05-11T10:01:21.399Z,15.60
2023-05-11T10:02:21.578Z,15.72
2023-05-11T10:03:21.437Z,15.84
2023-05-11T10:04:23.428Z,15.96
2023-05-11T10:05:21.380Z,15.96
2023-05-11T10:06:21.321Z,16.00
2023-05-11T10:07:21.308Z,16.00
2023-05-11T10:08:21.293Z,16.00
2023-05-11T10:09:21.290Z,15.99
2023-05-11T10:10:21.288Z,15.99
2023-05-11T10:11:21.267Z,15.97
2023-05-11T10:12:21.269Z,16.14
2023-05-11T10:13:21.255Z,16.31
2023-05-11T10:14:21.219Z,16.30
2023-05-11T10:15:21.273Z,16.41
2023-05-11T10:16:21.270Z,16.45
2023-05-11T10:17:21.198Z,16.40
2023-05-11T10:18:21.302Z,16.41
2023-05-11T10:19:21.158Z,16.34
2023-05-11T10:20:21.478Z,16.37
2023-05-11T10:21:21.124Z,16.45
2023-05-11T10:22:21.201Z,16.52
2023-05-11T10:23:21.118Z,16.59
2023-05-11T10:24:21.146Z,16.62
2023-05-11T10:25:21.080Z,16.53
2023-05-11T10:26:21.063Z,16.56
2023-05-11T10:27:21.058Z,16.65
2023-05-11T10:28:21.057Z,16.88
2023-05-11T10:29:21.023Z,17.07
2023-05-11T10:30:21.228Z,17.25
2023-05-11T10:31:21.025Z,17.43
2023-05-11T10:32:21.119Z,17.53
2023-05-11T10:33:20.956Z,17.62
2023-05-11T10:34:20.940Z,17.70
2023-05-11T10:35:20.937Z,17.78
2023-05-11T10:36:20.914Z,17.84
2023-05-11T10:37:20.937Z,17.81
2023-05-11T10:38:20.885Z,17.99
2023-05-11T10:39:20.888Z,18.24
2023-05-11T10:40:21.105Z,18.59
2023-05-11T10:41:20.870Z,18.94
2023-05-11T10:42:20.851Z,19.14
2023-05-11T10:43:20.824Z,19.29
2023-05-11T10:44:20.817Z,19.65
2023-05-11T10:45:20.798Z,19.83
2023-05-11T10:46:20.859Z,19.76
2023-05-11T10:47:20.778Z,19.57
2023-05-11T10:48:20.764Z,19.46
2023-05-11T10:49:20.749Z,19.47
2023-05-11T10:50:20.973Z,19.60
2023-05-11T10:51:21.596Z,19.54
2023-05-11T10:52:20.844Z,19.60
2023-05-11T10:53:20.706Z,19.72
2023-05-11T10:54:20.692Z,19.60
2023-05-11T10:55:20.777Z,19.60
2023-05-11T10:56:20.653Z,19.38
2023-05-11T10:57:20.649Z,19.15
2023-05-11T10:58:20.629Z,18.98
2023-05-11T10:59:20.624Z,18.92
2023-05-11T11:00:20.979Z,18.73
2023-05-11T11:01:20.676Z,18.61
2023-05-11T11:02:20.581Z,18.06
2023-05-11T11:03:20.573Z,17.84
2023-05-11T11:04:20.605Z,17.73
2023-05-11T11:05:20.852Z,17.54
2023-05-11T11:06:20.545Z,17.32
2023-05-11T11:07:20.519Z,17.28
2023-05-11T11:08:20.491Z,17.48
2023-05-11T11:09:20.518Z,17.59
2023-05-11T11:10:20.703Z,17.64
2023-05-11T11:11:20.489Z,17.67
2023-05-11T11:12:20.435Z,17.63
2023-05-11T11:13:20.437Z,17.73
2023-05-11T11:14:20.433Z,17.67
2023-05-11T11:15:20.519Z,17.51
2023-05-11T11:16:20.396Z,17.51
2023-05-11T11:17:20.441Z,17.47
2023-05-11T11:18:20.477Z,17.43
2023-05-11T11:19:20.381Z,17.46
2023-05-11T11:20:20.343Z,17.59
2023-05-11T11:21:20.334Z,17.70
2023-05-11T11:22:20.336Z,17.85
2023-05-11T11:23:20.321Z,17.87
2023-05-11T11:24:20.310Z,17.91
2023-05-11T11:25:20.467Z,18.07
2023-05-11T11:26:20.265Z,18.02
2023-05-11T11:27:20.260Z,17.91
2023-05-11T11:28:20.243Z,17.81
2023-05-11T11:29:20.227Z,17.76
2023-05-11T11:30:20.285Z,17.71
2023-05-11T11:31:20.256Z,17.64
2023-05-11T11:32:20.187Z,17.67
2023-05-11T11:33:20.204Z,17.79
2023-05-11T11:34:20.164Z,17.92
2023-05-11T11:35:20.292Z,18.04
2023-05-11T11:36:20.199Z,18.10
2023-05-11T11:37:20.138Z,18.17
2023-05-11T11:38:20.108Z,18.22
2023-05-11T11:39:20.129Z,18.24
2023-05-11T11:40:20.080Z,18.21
2023-05-11T11:41:20.071Z,18.18
2023-05-11T11:42:20.066Z,18.22
2023-05-11T11:43:20.053Z,18.24
2023-05-11T11:44:20.026Z,18.19
2023-05-11T11:45:20.298Z,18.24
2023-05-11T11:46:20.091Z,18.37
2023-05-11T11:47:20.008Z,18.50
2023-05-11T11:48:19.973Z,18.58
2023-05-11T11:49:19.971Z,18.57
2023-05-11T11:50:19.943Z,18.57
2023-05-11T11:51:19.951Z,18.55
2023-05-11T11:52:19.932Z,18.57
2023-05-11T11:53:19.909Z,18.43
2023-05-11T11:54:19.889Z,18.40
2023-05-11T11:55:20.051Z,18.27
2023-05-11T11:56:19.879Z,18.15
2023-05-11T11:57:19.856Z,18.24
2023-05-11T11:58:19.842Z,18.33
2023-05-11T11:59:19.831Z,18.40
2023-05-11T12:00:19.812Z,18.47
2023-05-11T12:01:19.830Z,18.39
2023-05-11T12:02:19.787Z,18.37
2023-05-11T12:03:19.889Z,18.36
2023-05-11T12:04:19.905Z,18.42
2023-05-11T12:05:20.345Z,18.46
2023-05-11T12:06:19.748Z,18.55
2023-05-11T12:07:19.738Z,18.68
2023-05-11T12:08:19.709Z,18.76
2023-05-11T12:09:19.728Z,18.86
2023-05-11T12:10:19.707Z,18.82
2023-05-11T12:11:19.676Z,19.01
2023-05-11T12:12:19.655Z,19.13
2023-05-11T12:13:19.640Z,19.17
2023-05-11T12:14:19.667Z,19.13
2023-05-11T12:15:19.772Z,19.08
2023-05-11T12:16:19.642Z,18.74
2023-05-11T12:17:19.588Z,18.55
2023-05-11T12:18:19.593Z,18.57
2023-05-11T12:19:19.648Z,18.47
2023-05-11T12:20:19.559Z,18.21
2023-05-11T12:21:19.535Z,18.02
2023-05-11T12:22:19.527Z,17.99
2023-05-11T12:23:19.513Z,17.94
2023-05-11T12:24:19.504Z,18.02
2023-05-11T12:25:19.712Z,18.07
2023-05-11T12:26:19.489Z,18.07
2023-05-11T12:27:19.462Z,18.06
2023-05-11T12:28:19.447Z,18.10
2023-05-11T12:29:19.443Z,18.19
2023-05-11T12:30:19.412Z,18.24
2023-05-11T12:31:19.440Z,18.25
2023-05-11T12:32:19.389Z,18.15
2023-05-11T12:33:19.409Z,18.12
2023-05-11T12:34:19.405Z,18.02
2023-05-11T12:35:19.639Z,17.99
2023-05-11T12:36:19.342Z,18.06
2023-05-11T12:37:19.330Z,18.04
2023-05-11T12:38:19.322Z,18.06
2023-05-11T12:39:19.309Z,18.12
2023-05-11T12:40:19.295Z,18.19
2023-05-11T12:41:19.276Z,18.25
2023-05-11T12:42:19.262Z,18.34
2023-05-11T12:43:19.264Z,18.43
2023-05-11T12:44:19.234Z,18.46
2023-05-11T12:45:19.513Z,18.43
2023-05-11T12:46:19.266Z,18.34
2023-05-11T12:47:19.216Z,18.28
2023-05-11T12:48:19.198Z,18.27
2023-05-11T12:49:24.651Z,18.25
2023-05-11T12:50:20.154Z,18.24
2023-05-11T12:51:19.146Z,18.27
2023-05-11T12:52:19.138Z,18.37
2023-05-11T12:53:19.114Z,18.49
2023-05-11T12:54:19.119Z,18.52
2023-05-11T12:55:19.255Z,18.64
2023-05-11T12:56:19.083Z,18.68
2023-05-11T12:57:19.090Z,18.65
2023-05-11T12:58:19.059Z,18.64
2023-05-11T12:59:19.041Z,18.65
2023-05-11T13:00:21.167Z,18.62
2023-05-11T13:01:19.085Z,18.54
2023-05-11T13:02:19.092Z,18.44
2023-05-11T13:03:26.114Z,18.40
2023-05-11T13:04:18.982Z,18.33
2023-05-11T13:05:19.183Z,18.24
2023-05-11T13:06:18.972Z,18.21
2023-05-11T13:07:18.940Z,18.10
2023-05-11T13:08:18.929Z,18.24
2023-05-11T13:09:18.904Z,18.40
2023-05-11T13:10:18.912Z,18.46
2023-05-11T13:11:18.901Z,18.67
2023-05-11T13:12:18.882Z,18.77
2023-05-11T13:13:18.894Z,18.80
2023-05-11T13:14:18.853Z,18.73
2023-05-11T13:15:19.023Z,18.82
2023-05-11T13:16:18.851Z,18.79
2023-05-11T13:17:18.804Z,18.68
2023-05-11T13:18:18.972Z,18.70
2023-05-11T13:19:18.774Z,18.49
2023-05-11T13:20:18.801Z,18.39
2023-05-11T13:21:18.748Z,18.36
2023-05-11T13:22:18.743Z,18.42
2023-05-11T13:23:18.714Z,18.40
2023-05-11T13:24:18.738Z,18.40
2023-05-11T13:25:19.049Z,18.31
2023-05-11T13:26:18.689Z,18.36
2023-05-11T13:27:18.668Z,18.37
2023-05-11T13:28:18.665Z,18.34
2023-05-11T13:29:18.702Z,18.31
2023-05-11T13:30:18.679Z,18.29
2023-05-11T13:31:18.761Z,18.17
2023-05-11T13:32:18.664Z,18.17
2023-05-11T13:33:18.643Z,18.12
2023-05-11T13:34:18.601Z,18.06
2023-05-11T13:35:18.739Z,18.09
2023-05-11T13:36:18.562Z,18.12
2023-05-11T13:37:18.544Z,18.13
2023-05-11T13:38:18.637Z,18.07
2023-05-11T13:39:18.518Z,17.89
2023-05-11T13:40:18.510Z,17.85
2023-05-11T13:41:18.488Z,17.91
2023-05-11T13:42:18.481Z,17.95
2023-05-11T13:43:18.498Z,17.88
2023-05-11T13:44:18.465Z,17.88
2023-05-11T13:45:18.687Z,17.99
2023-05-11T13:46:18.467Z,17.95
2023-05-11T13:47:18.413Z,17.99
2023-05-11T13:48:18.626Z,18.02
2023-05-11T13:49:18.378Z,17.99
2023-05-11T13:50:18.377Z,17.79
2023-05-11T13:51:18.361Z,17.67
2023-05-11T13:52:18.362Z,17.64
2023-05-11T13:53:18.646Z,17.47
2023-05-11T13:54:18.319Z,17.46
2023-05-11T13:55:18.649Z,17.35
2023-05-11T13:56:18.340Z,17.35
2023-05-11T13:57:18.340Z,17.36
2023-05-11T13:58:18.295Z,17.43
2023-05-11T13:59:18.253Z,17.48
2023-05-11T14:00:18.258Z,17.54
2023-05-11T14:01:18.270Z,17.66
2023-05-11T14:02:19.149Z,17.63
2023-05-11T14:03:18.262Z,17.57
2023-05-11T14:04:18.188Z,17.62
2023-05-11T14:05:18.522Z,17.62
2023-05-11T14:06:18.158Z,17.55
2023-05-11T14:07:18.165Z,17.62
2023-05-11T14:08:18.129Z,17.66
2023-05-11T14:09:18.131Z,17.67
2023-05-11T14:10:18.138Z,17.51
2023-05-11T14:11:18.106Z,17.44
2023-05-11T14:12:18.105Z,17.36
2023-05-11T14:13:18.068Z,17.36
2023-05-11T14:14:18.061Z,17.35
2023-05-11T14:15:18.278Z,17.44
2023-05-11T14:16:18.043Z,17.50
2023-05-11T14:17:18.105Z,17.50
2023-05-11T14:18:18.165Z,17.51
2023-05-11T14:19:18.091Z,17.55
2023-05-11T14:20:17.972Z,17.50
2023-05-11T14:21:17.999Z,17.46
2023-05-11T14:22:17.952Z,17.46
2023-05-11T14:23:17.940Z,17.46
2023-05-11T14:24:17.926Z,17.48
2023-05-11T14:25:18.131Z,17.47
2023-05-11T14:26:17.912Z,17.48
2023-05-11T14:27:17.923Z,17.47
2023-05-11T14:28:17.868Z,17.47
2023-05-11T14:29:17.890Z,17.44
2023-05-11T14:30:17.858Z,17.41
2023-05-11T14:31:17.884Z,17.40
2023-05-11T14:32:17.813Z,17.38
2023-05-11T14:33:17.802Z,17.35
2023-05-11T14:34:17.785Z,17.30
2023-05-11T14:35:18.111Z,17.25
2023-05-11T14:36:17.768Z,17.28
2023-05-11T14:37:17.750Z,17.26
2023-05-11T14:38:17.761Z,17.26
2023-05-11T14:39:17.720Z,17.25
2023-05-11T14:40:17.719Z,17.22
2023-05-11T14:41:17.706Z,17.26
2023-05-11T14:42:17.688Z,17.18
2023-05-11T14:43:17.691Z,17.25
2023-05-11T14:44:17.678Z,17.30
2023-05-11T14:45:17.785Z,17.20
2023-05-11T14:46:17.665Z,17.22
2023-05-11T14:47:17.622Z,17.29
2023-05-11T14:48:17.602Z,17.40
2023-05-11T14:49:17.603Z,17.44
2023-05-11T14:50:17.575Z,17.50
2023-05-11T14:51:17.562Z,17.54
2023-05-11T14:52:17.549Z,17.59
2023-05-11T14:53:17.546Z,17.59
2023-05-11T14:54:17.540Z,17.59
2023-05-11T14:55:17.682Z,17.63
2023-05-11T14:56:17.499Z,17.51
2023-05-11T14:57:17.496Z,17.54
2023-05-11T14:58:17.489Z,17.51
2023-05-11T14:59:17.480Z,17.57
2023-05-11T15:00:17.445Z,17.57
2023-05-11T15:01:17.480Z,17.59
2023-05-11T15:02:17.415Z,17.55
2023-05-11T15:03:17.431Z,17.50
2023-05-11T15:04:17.500Z,17.50
2023-05-11T15:05:17.658Z,17.54
2023-05-11T15:06:17.359Z,17.43
2023-05-11T15:07:17.363Z,17.33
2023-05-11T15:08:29.176Z,17.30
2023-05-11T15:09:18.324Z,17.30
2023-05-11T15:10:17.324Z,17.29
2023-05-11T15:11:17.301Z,17.14
2023-05-11T15:12:17.298Z,17.00
2023-05-11T15:13:17.304Z,17.03
2023-05-11T15:14:17.254Z,17.07
2023-05-11T15:15:17.379Z,17.13
2023-05-11T15:16:17.271Z,17.15
2023-05-11T15:17:17.233Z,17.23
2023-05-11T15:18:17.199Z,17.28
2023-05-11T15:19:17.501Z,17.30
2023-05-11T15:20:17.182Z,17.28
2023-05-11T15:21:17.160Z,17.13
2023-05-11T15:22:17.225Z,17.00
2023-05-11T15:23:17.396Z,16.90
2023-05-11T15:24:17.121Z,16.90
2023-05-11T15:25:17.306Z,16.81
2023-05-11T15:26:17.112Z,16.80
2023-05-11T15:27:17.230Z,16.74
2023-05-11T15:28:17.069Z,16.74
2023-05-11T15:29:17.096Z,16.78
2023-05-11T15:30:17.051Z,16.75
2023-05-11T15:31:17.128Z,16.75
2023-05-11T15:32:17.029Z,16.75
2023-05-11T15:33:17.151Z,16.71
2023-05-11T15:34:16.986Z,16.65
2023-05-11T15:35:17.420Z,16.58
2023-05-11T15:36:16.977Z,16.60
2023-05-11T15:37:16.959Z,16.65
2023-05-11T15:38:16.945Z,16.65
2023-05-11T15:39:16.935Z,16.67
2023-05-11T15:40:16.923Z,16.70
2023-05-11T15:41:16.918Z,16.74
2023-05-11T15:42:16.881Z,16.75
2023-05-11T15:43:16.879Z,16.81
2023-05-11T15:44:16.855Z,16.86
2023-05-11T15:45:17.026Z,16.85
2023-05-11T15:46:17.121Z,16.88
2023-05-11T15:47:16.819Z,16.98
2023-05-11T15:48:16.798Z,17.03
2023-05-11T15:49:16.796Z,16.99
2023-05-11T15:50:17.039Z,17.00
2023-05-11T15:51:16.773Z,17.03
2023-05-11T15:52:16.759Z,17.04
2023-05-11T15:53:16.749Z,17.04
2023-05-11T15:54:16.754Z,17.03
2023-05-11T15:55:16.748Z,16.99
2023-05-11T15:56:16.704Z,16.89
2023-05-11T15:57:16.735Z,16.88
2023-05-11T15:58:16.678Z,16.89
2023-05-11T15:59:16.671Z,16.92
2023-05-11T16:00:16.868Z,16.93
2023-05-11T16:01:16.717Z,16.99
2023-05-11T16:02:16.644Z,17.00
2023-05-11T16:03:16.889Z,16.99
2023-05-11T16:04:16.597Z,16.98
2023-05-11T16:05:16.655Z,16.92
2023-05-11T16:06:16.565Z,16.81
2023-05-11T16:07:16.748Z,16.83
2023-05-11T16:08:16.540Z,16.80
2023-05-11T16:09:16.543Z,16.74
2023-05-11T16:10:16.557Z,16.65
2023-05-11T16:11:16.487Z,16.53
2023-05-11T16:12:16.506Z,16.37
2023-05-11T16:13:16.486Z,16.30
2023-05-11T16:14:16.482Z,16.26
2023-05-11T16:15:16.451Z,16.26
2023-05-11T16:16:16.438Z,16.27
2023-05-11T16:17:16.518Z,16.27
2023-05-11T16:18:16.480Z,16.31
2023-05-11T16:19:16.394Z,16.38
2023-05-11T16:20:16.700Z,16.41
2023-05-11T16:21:16.368Z,16.41
2023-05-11T16:22:16.366Z,16.45
2023-05-11T16:23:16.356Z,16.50
2023-05-11T16:24:16.323Z,16.50
2023-05-11T16:25:16.310Z,16.55
2023-05-11T16:26:16.307Z,16.50
2023-05-11T16:27:16.290Z,16.42
2023-05-11T16:28:16.308Z,16.35
2023-05-11T16:29:16.252Z,16.34
2023-05-11T16:30:24.045Z,16.38
2023-05-11T16:31:17.290Z,16.37
2023-05-11T16:32:16.228Z,16.42
2023-05-11T16:33:16.218Z,16.50
2023-05-11T16:34:16.198Z,16.55
2023-05-11T16:35:16.185Z,16.56
2023-05-11T16:36:16.182Z,16.49
2023-05-11T16:37:16.149Z,16.52
2023-05-11T16:38:16.151Z,16.55
2023-05-11T16:39:16.125Z,16.53
2023-05-11T16:40:16.156Z,16.52
2023-05-11T16:41:16.145Z,16.52
2023-05-11T16:42:16.094Z,16.55
2023-05-11T16:43:16.076Z,16.56
2023-05-11T16:44:16.068Z,16.60
2023-05-11T16:45:16.047Z,16.56
2023-05-11T16:46:16.087Z,16.49
2023-05-11T16:47:16.031Z,16.40
2023-05-11T16:48:16.003Z,16.38
2023-05-11T16:49:15.991Z,16.37
2023-05-11T16:50:16.507Z,16.34
2023-05-11T16:51:15.989Z,16.33
2023-05-11T16:52:15.959Z,16.34
2023-05-11T16:53:15.961Z,16.30
2023-05-11T16:54:15.925Z,16.30
2023-05-11T16:55:16.022Z,16.31
2023-05-11T16:56:15.908Z,16.31
2023-05-11T16:57:15.884Z,16.31
2023-05-11T16:58:15.880Z,16.31
2023-05-11T16:59:15.869Z,16.37
2023-05-11T17:00:15.865Z,16.37
2023-05-11T17:01:15.870Z,16.30
2023-05-11T17:02:15.827Z,16.26
2023-05-11T17:03:15.870Z,16.26
2023-05-11T17:04:15.955Z,16.27
2023-05-11T17:05:15.797Z,16.31
2023-05-11T17:06:15.779Z,16.31
2023-05-11T17:07:15.757Z,16.27